Temp: 3.9°C   Baro: 1036.4mb
  Wind: 2.0mph   Dir: W (273°)
  Rain: 0.0mm (0.0mm/hr)
  Solar: 0W/m2  Hum: 84%

Historic data

Bath Spa Weather Station Historical Data
Daily Summary for December 10, 2019 Units:  Both    English   Metric
Daily Weekly Monthly Yearly Custom
  High: Low: Average:
Temperature: 55.9 °F /  13.3 °C 34.2 °F /  1.2 °C 46.9 °F /  8.3 °C
Dew Point: 53.1 °F /  11.7 °C 32 °F /  0 °C 44.2 °F /  6.8 °C
Humidity: 93% 83% 90%
Wind Speed: 19.4mph /  31.2km/h - 6.8mph /  10.9km/h
Wind Gust: 38mph /  61.2km/h - -
Wind- - SW
Pressure: 30.26 in /  1024.6 hPa 29.55 in /  1000.6 hPa -
Precipitation: 0.31 in /  7.87 mm    
Historical Graphs
 
 
Tabular Data for December 10, 2019
Time Temperature Dew Point Pressure Wind Wind Speed Wind Gust Humidity Rainfall Rate (Hourly) solar
00:09 34.4 °F /  1.3 °C 32.2 °F /  0.1 °C 30.26in /  1024.6hPa WNW 1.2mph /  1.9km/h 2mph /  3.2km/h 91.4% 0.00in /  0mm 0 W/m2
00:14 34.3 °F /  1.3 °C 32.2 °F /  0.1 °C 30.25in /  1024.3hPa WNW 0.2mph /  0.3km/h 2mph /  3.2km/h 92% 0.00in /  0mm 0 W/m2
00:19 34.3 °F /  1.3 °C 32.2 °F /  0.1 °C 30.25in /  1024.3hPa Calm     92% 0.00in /  0mm 0 W/m2
00:24 34.3 °F /  1.3 °C 32.2 °F /  0.1 °C 30.24in /  1023.9hPa WNW 0.2mph /  0.3km/h 1mph /  1.6km/h 92% 0.00in /  0mm 0 W/m2
00:29 34.3 °F /  1.3 °C 32.2 °F /  0.1 °C 30.24in /  1023.9hPa Calm   2mph /  3.2km/h 92% 0.00in /  0mm 0 W/m2
00:34 34.2 °F /  1.2 °C 32 °F /  0 °C 30.24in /  1023.9hPa WNW 0.2mph /  0.3km/h 1mph /  1.6km/h 92% 0.00in /  0mm 0 W/m2
00:39 34.2 °F /  1.2 °C 32 °F /  0 °C 30.24in /  1023.9hPa Calm     92% 0.00in /  0mm 0 W/m2
00:44 34.2 °F /  1.2 °C 32 °F /  0 °C 30.23in /  1023.6hPa WNW 0.4mph /  0.6km/h 2mph /  3.2km/h 92% 0.00in /  0mm 0 W/m2
00:49 34.2 °F /  1.2 °C 32 °F /  0 °C 30.23in /  1023.6hPa Calm     92% 0.00in /  0mm 0 W/m2
00:54 34.2 °F /  1.2 °C 32.1 °F /  0.1 °C 30.23in /  1023.6hPa Calm     92% 0.00in /  0mm 0 W/m2
00:59 34.3 °F /  1.3 °C 32.2 °F /  0.1 °C 30.23in /  1023.6hPa Calm     92% 0.00in /  0mm 0 W/m2
01:04 34.2 °F /  1.2 °C 32 °F /  0 °C 30.22in /  1023.2hPa Calm     92% 0.00in /  0mm 0 W/m2
01:09 34.2 °F /  1.2 °C 32 °F /  0 °C 30.22in /  1023.2hPa Calm     92% 0.00in /  0mm 0 W/m2
01:14 34.2 °F /  1.2 °C 32 °F /  0 °C 30.22in /  1023.2hPa Calm     92% 0.00in /  0mm 0 W/m2
01:19 34.2 °F /  1.2 °C 32 °F /  0 °C 30.22in /  1023.2hPa Calm     92% 0.00in /  0mm 0 W/m2
01:24 34.2 °F /  1.2 °C 32 °F /  0 °C 30.22in /  1023.2hPa Calm     92% 0.00in /  0mm 0 W/m2
01:29 34.2 °F /  1.2 °C 32 °F /  0 °C 30.22in /  1023.2hPa Calm   1mph /  1.6km/h 92% 0.00in /  0mm 0 W/m2
01:34 34.2 °F /  1.2 °C 32.1 °F /  0.1 °C 30.22in /  1023.2hPa Calm   1mph /  1.6km/h 92% 0.00in /  0mm 0 W/m2
01:39 34.3 °F /  1.3 °C 32.2 °F /  0.1 °C 30.22in /  1023.2hPa Calm   1mph /  1.6km/h 92% 0.00in /  0mm 0 W/m2
01:44 34.3 °F /  1.3 °C 32.2 °F /  0.1 °C 30.22in /  1023.2hPa Calm     92% 0.00in /  0mm 0 W/m2
01:49 34.3 °F /  1.3 °C 32.2 °F /  0.1 °C 30.22in /  1023.2hPa Calm     92% 0.00in /  0mm 0 W/m2
01:54 34.4 °F /  1.3 °C 32.4 °F /  0.2 °C 30.22in /  1023.2hPa WNW 0.2mph /  0.3km/h 2mph /  3.2km/h 92.2% 0.00in /  0mm 0 W/m2
01:59 34.6 °F /  1.4 °C 32.8 °F /  0.4 °C 30.21in /  1022.9hPa WNW 1.2mph /  1.9km/h 2mph /  3.2km/h 93% 0.00in /  0mm 0 W/m2
02:04 35.2 °F /  1.8 °C 33.4 °F /  0.8 °C 30.21in /  1022.9hPa WNW 1mph /  1.6km/h 3mph /  4.8km/h 92.8% 0.00in /  0mm 0 W/m2
02:09 35.4 °F /  1.9 °C 33.6 °F /  0.9 °C 30.21in /  1022.9hPa Calm   1mph /  1.6km/h 93% 0.00in /  0mm 0 W/m2
02:14 35.7 °F /  2.1 °C 33.9 °F /  1.1 °C 30.21in /  1022.9hPa WNW 0.8mph /  1.3km/h 3mph /  4.8km/h 93% 0.00in /  0mm 0 W/m2
02:19 36.2 °F /  2.3 °C 34.4 °F /  1.3 °C 30.21in /  1022.9hPa WNW 0.4mph /  0.6km/h 3mph /  4.8km/h 93% 0.00in /  0mm 0 W/m2
02:24 36.6 °F /  2.6 °C 34.8 °F /  1.6 °C 30.21in /  1022.9hPa WNW 0.4mph /  0.6km/h 2mph /  3.2km/h 93% 0.00in /  0mm 0 W/m2
02:29 36.9 °F /  2.7 °C 35.1 °F /  1.7 °C 30.21in /  1022.9hPa WNW 0.2mph /  0.3km/h 1mph /  1.6km/h 93% 0.00in /  0mm 0 W/m2
02:34 37.4 °F /  3 °C 35.6 °F /  2 °C 30.20in /  1022.6hPa WNW 0.8mph /  1.3km/h 2mph /  3.2km/h 93% 0.00in /  0mm 0 W/m2
02:39 37.7 °F /  3.2 °C 35.9 °F /  2.2 °C 30.20in /  1022.6hPa WNW 1.4mph /  2.3km/h 3mph /  4.8km/h 93% 0.00in /  0mm 0 W/m2
02:44 37.9 °F /  3.3 °C 36.1 °F /  2.3 °C 30.20in /  1022.6hPa WNW 0.2mph /  0.3km/h 1mph /  1.6km/h 93% 0.00in /  0mm 0 W/m2
02:49 37.8 °F /  3.2 °C 36 °F /  2.2 °C 30.20in /  1022.6hPa Calm   1mph /  1.6km/h 93% 0.00in /  0mm 0 W/m2
02:54 37.5 °F /  3.1 °C 35.7 °F /  2.1 °C 30.20in /  1022.6hPa WNW 0.6mph /  1km/h 3mph /  4.8km/h 93% 0.00in /  0mm 0 W/m2
02:59 37.6 °F /  3.1 °C 35.8 °F /  2.1 °C 30.19in /  1022.2hPa WNW 0.2mph /  0.3km/h 1mph /  1.6km/h 93% 0.00in /  0mm 0 W/m2
03:04 37.2 °F /  2.9 °C 35.4 °F /  1.9 °C 30.19in /  1022.2hPa Calm   2mph /  3.2km/h 93% 0.00in /  0mm 0 W/m2
03:09 37 °F /  2.8 °C 35.2 °F /  1.8 °C 30.19in /  1022.2hPa Calm   1mph /  1.6km/h 93% 0.00in /  0mm 0 W/m2
03:14 37 °F /  2.8 °C 35.2 °F /  1.8 °C 30.19in /  1022.2hPa WNW 0.2mph /  0.3km/h 2mph /  3.2km/h 93% 0.00in /  0mm 0 W/m2
03:19 37.3 °F /  2.9 °C 35.5 °F /  1.9 °C 30.18in /  1021.9hPa WNW 0.2mph /  0.3km/h 1mph /  1.6km/h 93% 0.00in /  0mm 0 W/m2
03:24 37.9 °F /  3.3 °C 36.1 °F /  2.3 °C 30.18in /  1021.9hPa Calm   1mph /  1.6km/h 93% 0.00in /  0mm 0 W/m2
03:29 38.6 °F /  3.7 °C 36.8 °F /  2.7 °C 30.18in /  1021.9hPa Calm   1mph /  1.6km/h 93% 0.00in /  0mm 0 W/m2
03:34 39.1 °F /  3.9 °C 37.3 °F /  2.9 °C 30.17in /  1021.6hPa WNW 2mph /  3.2km/h 4mph /  6.4km/h 93% 0.00in /  0mm 0 W/m2
03:39 39.5 °F /  4.2 °C 37.7 °F /  3.2 °C 30.17in /  1021.6hPa Calm   3mph /  4.8km/h 93% 0.00in /  0mm 0 W/m2
03:44 39.4 °F /  4.1 °C 37.6 °F /  3.1 °C 30.16in /  1021.2hPa WNW 0.2mph /  0.3km/h 2mph /  3.2km/h 93% 0.00in /  0mm 0 W/m2
03:49 39.2 °F /  4 °C 37.4 °F /  3 °C 30.16in /  1021.2hPa WNW 1.8mph /  2.9km/h 4mph /  6.4km/h 93% 0.00in /  0mm 0 W/m2
03:54 39.4 °F /  4.1 °C 37.6 °F /  3.1 °C 30.16in /  1021.2hPa WNW 0.8mph /  1.3km/h 3mph /  4.8km/h 93% 0.00in /  0mm 0 W/m2
03:59 39.7 °F /  4.3 °C 37.9 °F /  3.3 °C 30.16in /  1021.2hPa WNW 0.2mph /  0.3km/h 3mph /  4.8km/h 93% 0.00in /  0mm 0 W/m2
04:04 40 °F /  4.4 °C 38.2 °F /  3.4 °C 30.15in /  1020.9hPa WNW 1.5mph /  2.4km/h 3mph /  4.8km/h 93% 0.00in /  0mm 0 W/m2
04:09 40.3 °F /  4.6 °C 38.5 °F /  3.6 °C 30.15in /  1020.9hPa WNW 0.4mph /  0.6km/h 2mph /  3.2km/h 93% 0.00in /  0mm 0 W/m2
04:14 40.4 °F /  4.7 °C 38.6 °F /  3.7 °C 30.14in /  1020.5hPa WNW 1.2mph /  1.9km/h 3mph /  4.8km/h 93% 0.00in /  0mm 0 W/m2
04:19 40.5 °F /  4.7 °C 38.7 °F /  3.7 °C 30.14in /  1020.5hPa NW 1.4mph /  2.3km/h 3mph /  4.8km/h 93% 0.00in /  0mm 0 W/m2
04:24 40.5 °F /  4.7 °C 38.7 °F /  3.7 °C 30.14in /  1020.5hPa NW 0.4mph /  0.6km/h 4mph /  6.4km/h 93% 0.00in /  0mm 0 W/m2
04:29 40.6 °F /  4.8 °C 38.8 °F /  3.8 °C 30.13in /  1020.2hPa NNE 1mph /  1.6km/h 5mph /  8km/h 93% 0.00in /  0mm 0 W/m2
04:34 40.6 °F /  4.8 °C 38.8 °F /  3.8 °C 30.13in /  1020.2hPa NNE 2.4mph /  3.9km/h 6mph /  9.7km/h 93% 0.00in /  0mm 0 W/m2
04:39 40.8 °F /  4.9 °C 39 °F /  3.9 °C 30.12in /  1019.9hPa NE 3.4mph /  5.5km/h 7mph /  11.3km/h 93% 0.00in /  0mm 0 W/m2
04:44 41.3 °F /  5.2 °C 39.5 °F /  4.2 °C 30.12in /  1019.9hPa ESE 2.9mph /  4.7km/h 7mph /  11.3km/h 93% 0.00in /  0mm 0 W/m2
04:49 41.6 °F /  5.3 °C 39.8 °F /  4.3 °C 30.12in /  1019.9hPa SE 2.9mph /  4.7km/h 7mph /  11.3km/h 93% 0.00in /  0mm 0 W/m2
04:54 41.9 °F /  5.5 °C 40.1 °F /  4.5 °C 30.11in /  1019.5hPa ESE 3.3mph /  5.3km/h 7mph /  11.3km/h 93% 0.00in /  0mm 0 W/m2
04:59 42.4 °F /  5.8 °C 40.6 °F /  4.8 °C 30.11in /  1019.5hPa ESE 3.7mph /  6km/h 8mph /  12.9km/h 93% 0.00in /  0mm 0 W/m2
05:04 42.8 °F /  6 °C 41 °F /  5 °C 30.11in /  1019.5hPa ESE 2.8mph /  4.5km/h 6mph /  9.7km/h 93% 0.00in /  0mm 0 W/m2
05:09 43 °F /  6.1 °C 41.2 °F /  5.1 °C 30.10in /  1019.2hPa ESE 2.4mph /  3.9km/h 5mph /  8km/h 93% 0.00in /  0mm 0 W/m2
05:14 43.2 °F /  6.2 °C 41 °F /  5 °C 30.10in /  1019.2hPa ESE 1.7mph /  2.7km/h 5mph /  8km/h 92% 0.00in /  0mm 0 W/m2
05:19 43.2 °F /  6.2 °C 41 °F /  5 °C 30.09in /  1018.8hPa SE 3.6mph /  5.8km/h 8mph /  12.9km/h 92% 0.00in /  0mm 0 W/m2
05:24 43.2 °F /  6.2 °C 41.1 °F /  5.1 °C 30.08in /  1018.5hPa ESE 3mph /  4.8km/h 5mph /  8km/h 92% 0.00in /  0mm 0 W/m2
05:29 43.3 °F /  6.3 °C 41.2 °F /  5.1 °C 30.08in /  1018.5hPa ESE 3mph /  4.8km/h 6mph /  9.7km/h 92% 0.00in /  0mm 0 W/m2
05:34 43.3 °F /  6.3 °C 41 °F /  5 °C 30.08in /  1018.5hPa ESE 1.3mph /  2.1km/h 4mph /  6.4km/h 91.4% 0.00in /  0mm 0 W/m2
05:39 43.5 °F /  6.4 °C 41 °F /  5 °C 30.07in /  1018.2hPa ESE 1.3mph /  2.1km/h 5mph /  8km/h 91% 0.00in /  0mm 0 W/m2
05:44 43.9 °F /  6.6 °C 41.4 °F /  5.2 °C 30.07in /  1018.2hPa ESE 0.6mph /  1km/h 3mph /  4.8km/h 91% 0.00in /  0mm 0 W/m2
05:49 44.4 °F /  6.9 °C 41.9 °F /  5.5 °C 30.07in /  1018.2hPa SE 5mph /  8km/h 8mph /  12.9km/h 91% 0.00in /  0mm 0 W/m2
05:54 45.2 °F /  7.3 °C 42.5 °F /  5.8 °C 30.06in /  1017.8hPa South 6.6mph /  10.6km/h 12mph /  19.3km/h 90% 0.00in /  0mm 0 W/m2
05:59 46 °F /  7.8 °C 43.1 °F /  6.2 °C 30.06in /  1017.8hPa SSW 5.7mph /  9.2km/h 11mph /  17.7km/h 89.3% 0.00in /  0mm 0 W/m2
06:04 46.6 °F /  8.1 °C 43.2 °F /  6.2 °C 30.06in /  1017.8hPa South 7.4mph /  11.9km/h 15mph /  24.1km/h 88% 0.00in /  0mm 0 W/m2
06:09 46.9 °F /  8.3 °C 43.2 °F /  6.2 °C 30.06in /  1017.8hPa South 8.2mph /  13.2km/h 16mph /  25.7km/h 86.6% 0.00in /  0mm 0 W/m2
06:14 47.3 °F /  8.5 °C 43.4 °F /  6.3 °C 30.06in /  1017.8hPa South 3.7mph /  6km/h 12mph /  19.3km/h 86% 0.00in /  0mm 0 W/m2
06:19 47.6 °F /  8.7 °C 43.3 °F /  6.3 °C 30.06in /  1017.8hPa South 5.5mph /  8.9km/h 10mph /  16.1km/h 85% 0.00in /  0mm 0 W/m2
06:24 47.7 °F /  8.7 °C 43.3 °F /  6.3 °C 30.06in /  1017.8hPa SSW 4mph /  6.4km/h 9mph /  14.5km/h 85% 0.00in /  0mm 0 W/m2
06:29 47.9 °F /  8.8 °C 43.5 °F /  6.4 °C 30.05in /  1017.5hPa SW 6.2mph /  10km/h 12mph /  19.3km/h 84.8% 0.00in /  0mm 0 W/m2
06:34 48.3 °F /  9.1 °C 43.6 °F /  6.4 °C 30.05in /  1017.5hPa SSW 10.2mph /  16.4km/h 20mph /  32.2km/h 84% 0.00in /  0mm 0 W/m2
06:39 48.6 °F /  9.2 °C 43.9 °F /  6.6 °C 30.04in /  1017.2hPa SSW 6.8mph /  10.9km/h 15mph /  24.1km/h 83.8% 0.00in /  0mm 0 W/m2
06:44 48.7 °F /  9.3 °C 43.9 °F /  6.6 °C 30.04in /  1017.2hPa South 4.1mph /  6.6km/h 15mph /  24.1km/h 83% 0.00in /  0mm 0 W/m2
06:49 48.7 °F /  9.3 °C 43.8 °F /  6.6 °C 30.04in /  1017.2hPa SSW 3.6mph /  5.8km/h 12mph /  19.3km/h 83% 0.00in /  0mm 0 W/m2
06:53 48.6 °F /  9.2 °C 43.8 °F /  6.6 °C 30.04in /  1017.2hPa SSW 3.5mph /  5.6km/h 11mph /  17.7km/h 83.8% 0.00in /  0mm 0 W/m2
06:59 48.6 °F /  9.2 °C 43.9 °F /  6.6 °C 30.03in /  1016.8hPa SSW 5.6mph /  9km/h 12mph /  19.3km/h 84% 0.00in /  0mm 0 W/m2
07:04 48.6 °F /  9.2 °C 43.9 °F /  6.6 °C 30.03in /  1016.8hPa South 7.6mph /  12.2km/h 13mph /  20.9km/h 84% 0.00in /  0mm 0 W/m2
07:09 48.6 °F /  9.2 °C 44 °F /  6.7 °C 30.03in /  1016.8hPa SSW 4.8mph /  7.7km/h 12mph /  19.3km/h 84.2% 0.00in /  0mm 0 W/m2
07:14 48.6 °F /  9.2 °C 44.2 °F /  6.8 °C 30.02in /  1016.5hPa South 4mph /  6.4km/h 16mph /  25.7km/h 85% 0.00in /  0mm 0 W/m2
07:19 48.7 °F /  9.3 °C 44.6 °F /  7 °C 30.01in /  1016.1hPa South 4.8mph /  7.7km/h 12mph /  19.3km/h 85.6% 0.01in /  0.25mm 0 W/m2
07:24 48.7 °F /  9.3 °C 44.8 °F /  7.1 °C 30.01in /  1016.1hPa South 6.6mph /  10.6km/h 15mph /  24.1km/h 86% 0.01in /  0.25mm 0 W/m2
07:29 48.7 °F /  9.3 °C 45 °F /  7.2 °C 30.01in /  1016.1hPa South 4.5mph /  7.2km/h 15mph /  24.1km/h 86.8% 0.02in /  0.51mm 0 W/m2
07:33 48.8 °F /  9.3 °C 45 °F /  7.2 °C 30.00in /  1015.8hPa South 7.5mph /  12.1km/h 13mph /  20.9km/h 87% 0.02in /  0.51mm 0 W/m2
07:39 48.9 °F /  9.4 °C 45.2 °F /  7.3 °C 30.00in /  1015.8hPa South 4.4mph /  7.1km/h 13mph /  20.9km/h 87.4% 0.02in /  0.51mm 0 W/m2
07:44 48.8 °F /  9.3 °C 45.4 °F /  7.4 °C 29.99in /  1015.5hPa South 6.8mph /  10.9km/h 15mph /  24.1km/h 88% 0.02in /  0.51mm 0 W/m2
07:49 48.7 °F /  9.3 °C 45.3 °F /  7.4 °C 29.99in /  1015.5hPa South 5.7mph /  9.2km/h 13mph /  20.9km/h 88% 0.02in /  0.51mm 0 W/m2
07:54 48.8 °F /  9.3 °C 45.6 °F /  7.6 °C 29.99in /  1015.5hPa South 7mph /  11.3km/h 18mph /  29km/h 88.6% 0.02in /  0.51mm 0 W/m2
07:59 48.9 °F /  9.4 °C 45.9 °F /  7.7 °C 29.98in /  1015.1hPa South 7.2mph /  11.6km/h 18mph /  29km/h 89% 0.03in /  0.76mm 0 W/m2
08:04 49 °F /  9.4 °C 45.9 °F /  7.7 °C 29.98in /  1015.1hPa South 8.2mph /  13.2km/h 22mph /  35.4km/h 89% 0.03in /  0.76mm 0 W/m2
08:09 49.2 °F /  9.6 °C 46.1 °F /  7.8 °C 29.98in /  1015.1hPa SSW 6.6mph /  10.6km/h 18mph /  29km/h 89% 0.04in /  1.02mm 0 W/m2
08:13 49.3 °F /  9.6 °C 46.2 °F /  7.9 °C 29.98in /  1015.1hPa South 6.2mph /  10km/h 15mph /  24.1km/h 89% 0.04in /  1.02mm 0 W/m2
08:19 49.3 °F /  9.6 °C 46.2 °F /  7.9 °C 29.98in /  1015.1hPa South 9mph /  14.5km/h 16mph /  25.7km/h 89% 0.04in /  1.02mm 0 W/m2
08:24 49.5 °F /  9.7 °C 46.4 °F /  8 °C 29.97in /  1014.8hPa SSE 11.2mph /  18km/h 19mph /  30.6km/h 89% 0.03in /  0.76mm 5 W/m2
08:29 49.5 °F /  9.7 °C 46.4 °F /  8 °C 29.96in /  1014.4hPa South 8.8mph /  14.2km/h 17mph /  27.4km/h 89% 0.04in /  1.02mm 7 W/m2
08:34 49.5 °F /  9.7 °C 46.4 °F /  8 °C 29.96in /  1014.4hPa South 10.2mph /  16.4km/h 22mph /  35.4km/h 89% 0.04in /  1.02mm 9 W/m2
08:39 49.6 °F /  9.8 °C 46.5 °F /  8.1 °C 29.96in /  1014.4hPa South 6.7mph /  10.8km/h 16mph /  25.7km/h 89% 0.04in /  1.02mm 7 W/m2
08:44 49.5 °F /  9.7 °C 46.5 °F /  8.1 °C 29.95in /  1014.1hPa South 7.2mph /  11.6km/h 24mph /  38.6km/h 89.2% 0.04in /  1.02mm 9 W/m2
08:49 49.6 °F /  9.8 °C 46.7 °F /  8.2 °C 29.95in /  1014.1hPa SSW 9mph /  14.5km/h 23mph /  37km/h 90% 0.05in /  1.27mm 11 W/m2
08:53 49.6 °F /  9.8 °C 46.8 °F /  8.2 °C 29.94in /  1013.8hPa SSW 12.3mph /  19.8km/h 21mph /  33.8km/h 90% 0.05in /  1.27mm 12 W/m2
08:59 49.7 °F /  9.8 °C 46.8 °F /  8.2 °C 29.94in /  1013.8hPa South 7.1mph /  11.4km/h 21mph /  33.8km/h 90% 0.05in /  1.27mm 14 W/m2
09:04 49.8 °F /  9.9 °C 46.9 °F /  8.3 °C 29.94in /  1013.8hPa South 11.6mph /  18.7km/h 24mph /  38.6km/h 90% 0.06in /  1.52mm 19 W/m2
09:09 49.8 °F /  9.9 °C 46.9 °F /  8.3 °C 29.93in /  1013.4hPa South 12.1mph /  19.5km/h 17mph /  27.4km/h 90% 0.05in /  1.27mm 21 W/m2
09:14 49.8 °F /  9.9 °C 46.9 °F /  8.3 °C 29.93in /  1013.4hPa South 10.6mph /  17.1km/h 24mph /  38.6km/h 90% 0.05in /  1.27mm 23 W/m2
09:19 49.9 °F /  9.9 °C 47 °F /  8.3 °C 29.93in /  1013.4hPa South 11.8mph /  19km/h 19mph /  30.6km/h 90% 0.05in /  1.27mm 23 W/m2
09:24 50 °F /  10 °C 47.1 °F /  8.4 °C 29.93in /  1013.4hPa South 15mph /  24.1km/h 25mph /  40.2km/h 90% 0.06in /  1.52mm 21 W/m2
09:29 50.2 °F /  10.1 °C 47.3 °F /  8.5 °C 29.93in /  1013.4hPa South 7.8mph /  12.6km/h 22mph /  35.4km/h 90% 0.05in /  1.27mm 28 W/m2
09:34 50.1 °F /  10.1 °C 47.2 °F /  8.4 °C 29.93in /  1013.4hPa SSW 10.8mph /  17.4km/h 23mph /  37km/h 90% 0.05in /  1.27mm 26 W/m2
09:39 50.3 °F /  10.2 °C 47.4 °F /  8.6 °C 29.93in /  1013.4hPa South 10.2mph /  16.4km/h 25mph /  40.2km/h 90% 0.04in /  1.02mm 16 W/m2
09:44 50.4 °F /  10.2 °C 47.4 °F /  8.6 °C 29.93in /  1013.4hPa South 10mph /  16.1km/h 21mph /  33.8km/h 89.4% 0.04in /  1.02mm 14 W/m2
09:49 50.3 °F /  10.2 °C 47.3 °F /  8.5 °C 29.92in /  1013.1hPa South 11.2mph /  18km/h 22mph /  35.4km/h 89.2% 0.04in /  1.02mm 11 W/m2
09:54 50.3 °F /  10.2 °C 47.4 °F /  8.6 °C 29.91in /  1012.8hPa South 13mph /  20.9km/h 24mph /  38.6km/h 90% 0.03in /  0.76mm 14 W/m2
09:59 50.4 °F /  10.2 °C 47.4 °F /  8.6 °C 29.91in /  1012.8hPa South 8mph /  12.9km/h 22mph /  35.4km/h 89.4% 0.02in /  0.51mm 12 W/m2
10:04 50.5 °F /  10.3 °C 47.6 °F /  8.7 °C 29.90in /  1012.4hPa SSW 9.2mph /  14.8km/h 23mph /  37km/h 89.6% 0.02in /  0.51mm 14 W/m2
10:09 50.5 °F /  10.3 °C 47.6 °F /  8.7 °C 29.90in /  1012.4hPa South 7.8mph /  12.6km/h 14mph /  22.5km/h 89.3% 0.02in /  0.51mm 21 W/m2
10:14 50.5 °F /  10.3 °C 47.5 °F /  8.6 °C 29.90in /  1012.4hPa South 8.2mph /  13.2km/h 19mph /  30.6km/h 89.2% 0.03in /  0.76mm 23 W/m2
10:19 50.4 °F /  10.2 °C 47.5 °F /  8.6 °C 29.89in /  1012.1hPa SSW 11.6mph /  18.7km/h 20mph /  32.2km/h 89.8% 0.03in /  0.76mm 28 W/m2
10:24 50.4 °F /  10.2 °C 47.5 °F /  8.6 °C 29.89in /  1012.1hPa South 7.2mph /  11.6km/h 25mph /  40.2km/h 90% 0.02in /  0.51mm 35 W/m2
10:29 50.4 °F /  10.2 °C 47.5 °F /  8.6 °C 29.89in /  1012.1hPa South 9.4mph /  15.1km/h 25mph /  40.2km/h 90% 0.03in /  0.76mm 35 W/m2
10:34 50.4 °F /  10.2 °C 47.8 °F /  8.8 °C 29.89in /  1012.1hPa South 10.7mph /  17.2km/h 20mph /  32.2km/h 91% 0.03in /  0.76mm 33 W/m2
10:38 50.5 °F /  10.3 °C 48 °F /  8.9 °C 29.88in /  1011.7hPa SSW 10.5mph /  16.9km/h 27mph /  43.5km/h 91% 0.03in /  0.76mm 35 W/m2
10:44 50.7 °F /  10.4 °C 48 °F /  8.9 °C 29.88in /  1011.7hPa SSW 10.3mph /  16.6km/h 20mph /  32.2km/h 90.6% 0.04in /  1.02mm 33 W/m2
10:49 50.7 °F /  10.4 °C 47.8 °F /  8.8 °C 29.88in /  1011.7hPa SSW 9mph /  14.5km/h 26mph /  41.8km/h 90% 0.04in /  1.02mm 30 W/m2
10:54 50.7 °F /  10.4 °C 47.8 °F /  8.8 °C 29.88in /  1011.7hPa South 11.8mph /  19km/h 24mph /  38.6km/h 90% 0.03in /  0.76mm 39 W/m2
10:59 50.7 °F /  10.4 °C 48.2 °F /  9 °C 29.88in /  1011.7hPa South 10.8mph /  17.4km/h 25mph /  40.2km/h 90.8% 0.03in /  0.76mm 39 W/m2
11:04 50.7 °F /  10.4 °C 48.2 °F /  9 °C 29.87in /  1011.4hPa SSW 9.7mph /  15.6km/h 19mph /  30.6km/h 91% 0.03in /  0.76mm 35 W/m2
11:09 50.8 °F /  10.4 °C 48.3 °F /  9.1 °C 29.87in /  1011.4hPa SSW 12.8mph /  20.6km/h 24mph /  38.6km/h 91% 0.03in /  0.76mm 33 W/m2
11:14 50.9 °F /  10.5 °C 48.4 °F /  9.1 °C 29.87in /  1011.4hPa South 8.8mph /  14.2km/h 24mph /  38.6km/h 91% 0.02in /  0.51mm 26 W/m2
11:19 51 °F /  10.6 °C 48.5 °F /  9.2 °C 29.86in /  1011.1hPa SSW 11mph /  17.7km/h 19mph /  30.6km/h 91% 0.02in /  0.51mm 26 W/m2
11:24 51.1 °F /  10.6 °C 48.6 °F /  9.2 °C 29.85in /  1010.7hPa South 12.8mph /  20.6km/h 22mph /  35.4km/h 91% 0.02in /  0.51mm 26 W/m2
11:29 51.1 °F /  10.6 °C 48.6 °F /  9.2 °C 29.85in /  1010.7hPa SSW 8.5mph /  13.7km/h 22mph /  35.4km/h 91% 0.01in /  0.25mm 30 W/m2
11:34 51.1 °F /  10.6 °C 48.6 °F /  9.2 °C 29.84in /  1010.4hPa SSW 11mph /  17.7km/h 18mph /  29km/h 91% 0.01in /  0.25mm 26 W/m2
11:39 51.1 °F /  10.6 °C 48.6 °F /  9.2 °C 29.84in /  1010.4hPa South 12.4mph /  20km/h 25mph /  40.2km/h 91% 0.01in /  0.25mm 25 W/m2
11:44 51.2 °F /  10.7 °C 49 °F /  9.4 °C 29.84in /  1010.4hPa South 11.5mph /  18.5km/h 21mph /  33.8km/h 92% 0.00in /  0mm 28 W/m2
11:49 51.3 °F /  10.7 °C 49.1 °F /  9.5 °C 29.83in /  1010hPa South 8.2mph /  13.2km/h 25mph /  40.2km/h 92% 0.00in /  0mm 28 W/m2
11:54 51.3 °F /  10.7 °C 49.1 °F /  9.5 °C 29.83in /  1010hPa South 4mph /  6.4km/h 13mph /  20.9km/h 92% 0.00in /  0mm 30 W/m2
11:59 51.3 °F /  10.7 °C 49.1 °F /  9.5 °C 29.82in /  1009.7hPa South 9.4mph /  15.1km/h 18mph /  29km/h 92% 0.00in /  0mm 37 W/m2
12:04 51.4 °F /  10.8 °C 49.3 °F /  9.6 °C 29.81in /  1009.4hPa South 8.4mph /  13.5km/h 16mph /  25.7km/h 92% 0.00in /  0mm 37 W/m2
12:09 51.4 °F /  10.8 °C 49.3 °F /  9.6 °C 29.81in /  1009.4hPa SW 6.3mph /  10.1km/h 15mph /  24.1km/h 92% 0.00in /  0mm 25 W/m2
12:14 51.6 °F /  10.9 °C 49.5 °F /  9.7 °C 29.81in /  1009.4hPa South 9.6mph /  15.4km/h 18mph /  29km/h 92% 0.00in /  0mm 28 W/m2
12:19 51.6 °F /  10.9 °C 49.5 °F /  9.7 °C 29.80in /  1009hPa SSW 7.8mph /  12.6km/h 18mph /  29km/h 92% 0.00in /  0mm 63 W/m2
12:24 51.7 °F /  10.9 °C 49.5 °F /  9.7 °C 29.80in /  1009hPa SSW 5.7mph /  9.2km/h 14mph /  22.5km/h 92% 0.01in /  0.25mm 70 W/m2
12:29 51.8 °F /  11 °C 49.6 °F /  9.8 °C 29.79in /  1008.7hPa SSW 10.4mph /  16.7km/h 17mph /  27.4km/h 92% 0.01in /  0.25mm 49 W/m2
12:34 52 °F /  11.1 °C 50 °F /  10 °C 29.79in /  1008.7hPa SSW 13.5mph /  21.7km/h 22mph /  35.4km/h 93% 0.02in /  0.51mm 26 W/m2
12:39 52.1 °F /  11.2 °C 50.1 °F /  10.1 °C 29.79in /  1008.7hPa SSW 12mph /  19.3km/h 22mph /  35.4km/h 93% 0.02in /  0.51mm 33 W/m2
12:44 52.3 °F /  11.3 °C 50.1 °F /  10.1 °C 29.79in /  1008.7hPa South 10.4mph /  16.7km/h 19mph /  30.6km/h 92.4% 0.02in /  0.51mm 32 W/m2
12:49 52.3 °F /  11.3 °C 50 °F /  10 °C 29.78in /  1008.4hPa SSW 14.2mph /  22.9km/h 21mph /  33.8km/h 92% 0.02in /  0.51mm 23 W/m2
12:54 52.3 °F /  11.3 °C 50 °F /  10 °C 29.78in /  1008.4hPa South 16mph /  25.7km/h 23mph /  37km/h 92% 0.02in /  0.51mm 23 W/m2
12:59 52.3 °F /  11.3 °C 50 °F /  10 °C 29.78in /  1008.4hPa SSW 8.4mph /  13.5km/h 16mph /  25.7km/h 92% 0.02in /  0.51mm 30 W/m2
13:04 52.3 °F /  11.3 °C 50 °F /  10 °C 29.77in /  1008hPa SSW 11.4mph /  18.3km/h 22mph /  35.4km/h 92% 0.02in /  0.51mm 30 W/m2
13:09 52.3 °F /  11.3 °C 50 °F /  10 °C 29.77in /  1008hPa SSW 8mph /  12.9km/h 22mph /  35.4km/h 92% 0.02in /  0.51mm 32 W/m2
13:14 52.3 °F /  11.3 °C 50 °F /  10 °C 29.76in /  1007.7hPa SSW 8.4mph /  13.5km/h 17mph /  27.4km/h 92% 0.02in /  0.51mm 35 W/m2
13:19 52.3 °F /  11.3 °C 50.4 °F /  10.2 °C 29.76in /  1007.7hPa SSW 10.8mph /  17.4km/h 18mph /  29km/h 93% 0.02in /  0.51mm 33 W/m2
13:24 52.3 °F /  11.3 °C 50.4 °F /  10.2 °C 29.75in /  1007.3hPa South 7.2mph /  11.6km/h 18mph /  29km/h 93% 0.02in /  0.51mm 30 W/m2
13:29 52.5 °F /  11.4 °C 50.5 °F /  10.3 °C 29.74in /  1007hPa SW 16.6mph /  26.7km/h 22mph /  35.4km/h 93% 0.01in /  0.25mm 23 W/m2
13:34 52.7 °F /  11.5 °C 50.6 °F /  10.3 °C 29.73in /  1006.7hPa SSW 12.4mph /  20km/h 31mph /  49.9km/h 92.8% 0.00in /  0mm 14 W/m2
13:39 52.9 °F /  11.6 °C 50.5 °F /  10.3 °C 29.73in /  1006.7hPa SSW 11.4mph /  18.3km/h 21mph /  33.8km/h 92% 0.00in /  0mm 16 W/m2
13:44 52.9 °F /  11.6 °C 50.5 °F /  10.3 °C 29.72in /  1006.3hPa SSW 10.8mph /  17.4km/h 26mph /  41.8km/h 92% 0.00in /  0mm 18 W/m2
13:49 52.9 °F /  11.6 °C 50.5 °F /  10.3 °C 29.72in /  1006.3hPa South 9mph /  14.5km/h 18mph /  29km/h 92% 0.00in /  0mm 16 W/m2
13:54 52.9 °F /  11.6 °C 50.5 °F /  10.3 °C 29.72in /  1006.3hPa SSW 11.4mph /  18.3km/h 24mph /  38.6km/h 92% 0.00in /  0mm 14 W/m2
13:59 53.1 °F /  11.7 °C 50.7 °F /  10.4 °C 29.72in /  1006.3hPa SW 17.2mph /  27.7km/h 26mph /  41.8km/h 92% 0.00in /  0mm 14 W/m2
14:04 53.1 °F /  11.7 °C 50.8 °F /  10.4 °C 29.71in /  1006hPa SSW 12.8mph /  20.6km/h 26mph /  41.8km/h 92% 0.00in /  0mm 14 W/m2
14:09 53.1 °F /  11.7 °C 50.7 °F /  10.4 °C 29.70in /  1005.6hPa SSW 11.2mph /  18km/h 25mph /  40.2km/h 92% 0.00in /  0mm 11 W/m2
14:14 53.1 °F /  11.7 °C 50.8 °F /  10.4 °C 29.70in /  1005.6hPa SSW 13.6mph /  21.9km/h 23mph /  37km/h 92% 0.00in /  0mm 12 W/m2
14:19 53.2 °F /  11.8 °C 50.9 °F /  10.5 °C 29.70in /  1005.6hPa South 12mph /  19.3km/h 23mph /  37km/h 92% 0.00in /  0mm 14 W/m2
14:24 53.2 °F /  11.8 °C 50.9 °F /  10.5 °C 29.70in /  1005.6hPa SSW 12mph /  19.3km/h 25mph /  40.2km/h 92% 0.00in /  0mm 12 W/m2
14:29 53.2 °F /  11.8 °C 50.9 °F /  10.5 °C 29.69in /  1005.3hPa South 10.1mph /  16.3km/h 25mph /  40.2km/h 92% 0.00in /  0mm 11 W/m2
14:34 53.4 °F /  11.9 °C 51.1 °F /  10.6 °C 29.68in /  1005hPa SW 14.2mph /  22.9km/h 27mph /  43.5km/h 92% 0.00in /  0mm 9 W/m2
14:39 53.4 °F /  11.9 °C 51.1 °F /  10.6 °C 29.68in /  1005hPa South 11.2mph /  18km/h 25mph /  40.2km/h 92% 0.00in /  0mm 9 W/m2
14:44 53.4 °F /  11.9 °C 51.1 °F /  10.6 °C 29.68in /  1005hPa South 9mph /  14.5km/h 27mph /  43.5km/h 92% 0.00in /  0mm 9 W/m2
14:49 53.4 °F /  11.9 °C 51.1 °F /  10.6 °C 29.67in /  1004.6hPa South 15.5mph /  24.9km/h 21mph /  33.8km/h 92% 0.00in /  0mm 11 W/m2
14:54 53.6 °F /  12 °C 51.3 °F /  10.7 °C 29.67in /  1004.6hPa SSW 12.4mph /  20km/h 27mph /  43.5km/h 92% 0.00in /  0mm 12 W/m2
14:59 53.8 °F /  12.1 °C 51.4 °F /  10.8 °C 29.67in /  1004.6hPa SSW 7.4mph /  11.9km/h 27mph /  43.5km/h 92% 0.00in /  0mm 11 W/m2
15:04 53.9 °F /  12.2 °C 51.5 °F /  10.8 °C 29.67in /  1004.6hPa SSW 11.2mph /  18km/h 24mph /  38.6km/h 92% 0.00in /  0mm 7 W/m2
15:09 54 °F /  12.2 °C 51.6 °F /  10.9 °C 29.66in /  1004.3hPa SSW 11.8mph /  19km/h 23mph /  37km/h 92% 0.00in /  0mm 7 W/m2
15:14 54 °F /  12.2 °C 51.6 °F /  10.9 °C 29.66in /  1004.3hPa SSW 16mph /  25.7km/h 24mph /  38.6km/h 92% 0.00in /  0mm 12 W/m2
15:19 54.1 °F /  12.3 °C 51.7 °F /  10.9 °C 29.65in /  1003.9hPa SSW 17.4mph /  28km/h 22mph /  35.4km/h 92% 0.00in /  0mm 11 W/m2
15:24 54.1 °F /  12.3 °C 51.8 °F /  11 °C 29.65in /  1003.9hPa SSW 12.4mph /  20km/h 23mph /  37km/h 92% 0.00in /  0mm 9 W/m2
15:29 54.1 °F /  12.3 °C 51.8 °F /  11 °C 29.64in /  1003.6hPa SSW 13mph /  20.9km/h 23mph /  37km/h 92% 0.00in /  0mm 7 W/m2
15:34 54.3 °F /  12.4 °C 52 °F /  11.1 °C 29.64in /  1003.6hPa SW 9.2mph /  14.8km/h 24mph /  38.6km/h 92% 0.00in /  0mm 5 W/m2
15:39 54.5 °F /  12.5 °C 52.1 °F /  11.2 °C 29.63in /  1003.3hPa South 17.6mph /  28.3km/h 28mph /  45.1km/h 91.8% 0.00in /  0mm 5 W/m2
15:44 54.7 °F /  12.6 °C 52.2 °F /  11.2 °C 29.63in /  1003.3hPa South 8.2mph /  13.2km/h 21mph /  33.8km/h 91% 0.00in /  0mm 5 W/m2
15:49 54.7 °F /  12.6 °C 52.2 °F /  11.2 °C 29.62in /  1002.9hPa South 9.8mph /  15.8km/h 24mph /  38.6km/h 91% 0.00in /  0mm 0 W/m2
15:54 54.7 °F /  12.6 °C 52.2 °F /  11.2 °C 29.62in /  1002.9hPa SSW 10.6mph /  17.1km/h 29mph /  46.7km/h 91% 0.00in /  0mm 0 W/m2
15:59 54.9 °F /  12.7 °C 52.3 °F /  11.3 °C 29.61in /  1002.6hPa South 13mph /  20.9km/h 29mph /  46.7km/h 91% 0.00in /  0mm 0 W/m2
16:04 54.9 °F /  12.7 °C 52.4 °F /  11.3 °C 29.61in /  1002.6hPa SSW 12.3mph /  19.8km/h 24mph /  38.6km/h 91% 0.00in /  0mm 0 W/m2
16:09 55 °F /  12.8 °C 52.5 °F /  11.4 °C 29.61in /  1002.6hPa SSW 7.9mph /  12.7km/h 19mph /  30.6km/h 91% 0.00in /  0mm 0 W/m2
16:14 55 °F /  12.8 °C 52.5 °F /  11.4 °C 29.61in /  1002.6hPa SSW 11.4mph /  18.3km/h 22mph /  35.4km/h 91% 0.00in /  0mm 0 W/m2
16:19 55 °F /  12.8 °C 52.4 °F /  11.3 °C 29.61in /  1002.6hPa SSW 9.4mph /  15.1km/h 26mph /  41.8km/h 90.6% 0.00in /  0mm 0 W/m2
16:24 55 °F /  12.8 °C 52.2 °F /  11.2 °C 29.60in /  1002.3hPa South 11.8mph /  19km/h 22mph /  35.4km/h 90% 0.00in /  0mm 0 W/m2
16:29 55 °F /  12.8 °C 52.3 °F /  11.3 °C 29.59in /  1001.9hPa SSW 10mph /  16.1km/h 27mph /  43.5km/h 90.4% 0.01in /  0.25mm 0 W/m2
16:34 54.9 °F /  12.7 °C 52.3 °F /  11.3 °C 29.59in /  1001.9hPa South 9mph /  14.5km/h 27mph /  43.5km/h 91% 0.01in /  0.25mm 0 W/m2
16:39 54.9 °F /  12.7 °C 52.3 °F /  11.3 °C 29.59in /  1001.9hPa SSW 12.2mph /  19.6km/h 27mph /  43.5km/h 91% 0.01in /  0.25mm 0 W/m2
16:44 54.9 °F /  12.7 °C 52.3 °F /  11.3 °C 29.59in /  1001.9hPa SSW 13mph /  20.9km/h 22mph /  35.4km/h 91% 0.01in /  0.25mm 0 W/m2
16:49 54.9 °F /  12.7 °C 52.3 °F /  11.3 °C 29.58in /  1001.6hPa SSW 11.4mph /  18.3km/h 23mph /  37km/h 91% 0.01in /  0.25mm 0 W/m2
16:54 54.9 °F /  12.7 °C 52.3 °F /  11.3 °C 29.58in /  1001.6hPa SSW 9mph /  14.5km/h 20mph /  32.2km/h 91% 0.02in /  0.51mm 0 W/m2
16:59 55 °F /  12.8 °C 52.5 °F /  11.4 °C 29.58in /  1001.6hPa SSW 14.2mph /  22.9km/h 25mph /  40.2km/h 91% 0.02in /  0.51mm 0 W/m2
17:04 55 °F /  12.8 °C 52.5 °F /  11.4 °C 29.58in /  1001.6hPa SSW 8.3mph /  13.4km/h 25mph /  40.2km/h 91% 0.02in /  0.51mm 0 W/m2
17:09 55.1 °F /  12.8 °C 52.6 °F /  11.4 °C 29.58in /  1001.6hPa South 15mph /  24.1km/h 27mph /  43.5km/h 91% 0.02in /  0.51mm 0 W/m2
17:14 55.4 °F /  13 °C 52.9 °F /  11.6 °C 29.57in /  1001.2hPa SSW 12.6mph /  20.3km/h 27mph /  43.5km/h 91% 0.02in /  0.51mm 0 W/m2
17:19 55.6 °F /  13.1 °C 52.8 °F /  11.6 °C 29.57in /  1001.2hPa SSW 12.6mph /  20.3km/h 27mph /  43.5km/h 90.5% 0.02in /  0.51mm 0 W/m2
17:24 55.6 °F /  13.1 °C 52.7 °F /  11.5 °C 29.56in /  1000.9hPa SW 10.4mph /  16.7km/h 26mph /  41.8km/h 90% 0.02in /  0.51mm 0 W/m2
17:29 55.8 °F /  13.2 °C 52.9 °F /  11.6 °C 29.55in /  1000.6hPa SW 19.1mph /  30.7km/h 27mph /  43.5km/h 90% 0.02in /  0.51mm 0 W/m2
17:34 55.8 °F /  13.2 °C 52.9 °F /  11.6 °C 29.55in /  1000.6hPa SSW 17.4mph /  28km/h 30mph /  48.3km/h 90% 0.01in /  0.25mm 0 W/m2
17:39 55.9 °F /  13.3 °C 53.1 °F /  11.7 °C 29.57in /  1001.2hPa SSW 12.1mph /  19.5km/h 30mph /  48.3km/h 90% 0.01in /  0.25mm 0 W/m2
17:44 55 °F /  12.8 °C 52 °F /  11.1 °C 29.60in /  1002.3hPa WSW 15.3mph /  24.6km/h 38mph /  61.2km/h 89.6% 0.08in /  2.03mm 0 W/m2
17:49 52.6 °F /  11.4 °C 49.6 °F /  9.8 °C 29.60in /  1002.3hPa West 9.4mph /  15.1km/h 22mph /  35.4km/h 89.4% 0.09in /  2.29mm 0 W/m2
17:54 51.6 °F /  10.9 °C 48.7 °F /  9.3 °C 29.62in /  1002.9hPa West 16.8mph /  27km/h 24mph /  38.6km/h 90% 0.09in /  2.29mm 0 W/m2
17:59 51.2 °F /  10.7 °C 48.6 °F /  9.2 °C 29.62in /  1002.9hPa West 17mph /  27.4km/h 26mph /  41.8km/h 90.8% 0.09in /  2.29mm 0 W/m2
18:04 50.5 °F /  10.3 °C 47.9 °F /  8.8 °C 29.62in /  1002.9hPa West 19.4mph /  31.2km/h 25mph /  40.2km/h 91% 0.09in /  2.29mm 0 W/m2
18:09 50.1 °F /  10.1 °C 47.6 °F /  8.7 °C 29.63in /  1003.3hPa West 12.7mph /  20.4km/h 22mph /  35.4km/h 91% 0.10in /  2.54mm 0 W/m2
18:14 49.7 °F /  9.8 °C 47.3 °F /  8.5 °C 29.63in /  1003.3hPa West 14.3mph /  23km/h 24mph /  38.6km/h 91.4% 0.10in /  2.54mm 0 W/m2
18:19 49.4 °F /  9.7 °C 47.3 °F /  8.5 °C 29.64in /  1003.6hPa West 16.2mph /  26.1km/h 28mph /  45.1km/h 92% 0.12in /  3.05mm 0 W/m2
18:24 49 °F /  9.4 °C 46.8 °F /  8.2 °C 29.64in /  1003.6hPa West 11.8mph /  19km/h 23mph /  37km/h 92% 0.12in /  3.05mm 0 W/m2
18:29 48.7 °F /  9.3 °C 46.5 °F /  8.1 °C 29.65in /  1003.9hPa West 9.6mph /  15.4km/h 23mph /  37km/h 92% 0.12in /  3.05mm 0 W/m2
18:34 48.5 °F /  9.2 °C 46.3 °F /  7.9 °C 29.64in /  1003.6hPa West 9mph /  14.5km/h 23mph /  37km/h 92% 0.13in /  3.3mm 0 W/m2
18:39 48.2 °F /  9 °C 46 °F /  7.8 °C 29.65in /  1003.9hPa West 10.3mph /  16.6km/h 16mph /  25.7km/h 92% 0.13in /  3.3mm 0 W/m2
18:44 48 °F /  8.9 °C 45.9 °F /  7.7 °C 29.66in /  1004.3hPa West 11.6mph /  18.7km/h 19mph /  30.6km/h 92% 0.13in /  3.3mm 0 W/m2
18:49 48 °F /  8.9 °C 45.9 °F /  7.7 °C 29.65in /  1003.9hPa West 6.9mph /  11.1km/h 17mph /  27.4km/h 92% 0.06in /  1.52mm 0 W/m2
18:54 48 °F /  8.9 °C 45.9 °F /  7.7 °C 29.66in /  1004.3hPa West 13.2mph /  21.2km/h 21mph /  33.8km/h 92% 0.05in /  1.27mm 0 W/m2
18:59 48 °F /  8.9 °C 45.9 °F /  7.7 °C 29.66in /  1004.3hPa West 11.2mph /  18km/h 22mph /  35.4km/h 92% 0.05in /  1.27mm 0 W/m2
19:04 48 °F /  8.9 °C 45.9 °F /  7.7 °C 29.66in /  1004.3hPa West 9.9mph /  15.9km/h 22mph /  35.4km/h 92% 0.04in /  1.02mm 0 W/m2
19:09 48 °F /  8.9 °C 45.9 °F /  7.7 °C 29.67in /  1004.6hPa West 13.3mph /  21.4km/h 21mph /  33.8km/h 92% 0.03in /  0.76mm 0 W/m2
19:14 47.9 °F /  8.8 °C 45.8 °F /  7.7 °C 29.67in /  1004.6hPa West 10.4mph /  16.7km/h 21mph /  33.8km/h 92% 0.03in /  0.76mm 0 W/m2
19:19 47.8 °F /  8.8 °C 45.7 °F /  7.6 °C 29.67in /  1004.6hPa West 7.6mph /  12.2km/h 20mph /  32.2km/h 92% 0.02in /  0.51mm 0 W/m2
19:24 47.8 °F /  8.8 °C 45.7 °F /  7.6 °C 29.68in /  1005hPa West 9.4mph /  15.1km/h 22mph /  35.4km/h 92% 0.02in /  0.51mm 0 W/m2
19:29 47.8 °F /  8.8 °C 45.3 °F /  7.4 °C 29.68in /  1005hPa West 7.8mph /  12.6km/h 22mph /  35.4km/h 91.2% 0.02in /  0.51mm 0 W/m2
19:34 47.7 °F /  8.7 °C 45.1 °F /  7.3 °C 29.68in /  1005hPa West 8.8mph /  14.2km/h 20mph /  32.2km/h 91% 0.01in /  0.25mm 0 W/m2
19:39 47.7 °F /  8.7 °C 45.1 °F /  7.3 °C 29.69in /  1005.3hPa WSW 8.6mph /  13.8km/h 16mph /  25.7km/h 91% 0.01in /  0.25mm 0 W/m2
19:44 47.7 °F /  8.7 °C 45.1 °F /  7.3 °C 29.69in /  1005.3hPa WNW 7.5mph /  12.1km/h 20mph /  32.2km/h 90.5% 0.01in /  0.25mm 0 W/m2
19:49 47.6 °F /  8.7 °C 44.9 °F /  7.2 °C 29.69in /  1005.3hPa West 7.8mph /  12.6km/h 11mph /  17.7km/h 90% 0.01in /  0.25mm 0 W/m2
19:54 47.5 °F /  8.6 °C 44.8 °F /  7.1 °C 29.69in /  1005.3hPa West 8mph /  12.9km/h 11mph /  17.7km/h 90% 0.01in /  0.25mm 0 W/m2
19:59 47.4 °F /  8.6 °C 44.7 °F /  7.1 °C 29.69in /  1005.3hPa WSW 8.8mph /  14.2km/h 15mph /  24.1km/h 90% 0.01in /  0.25mm 0 W/m2
20:04 47.3 °F /  8.5 °C 44.3 °F /  6.8 °C 29.69in /  1005.3hPa West 10mph /  16.1km/h 16mph /  25.7km/h 89.2% 0.01in /  0.25mm 0 W/m2
20:09 47.5 °F /  8.6 °C 44.4 °F /  6.9 °C 29.70in /  1005.6hPa West 8.8mph /  14.2km/h 16mph /  25.7km/h 89% 0.00in /  0mm 0 W/m2
20:14 47.4 °F /  8.6 °C 44.3 °F /  6.8 °C 29.70in /  1005.6hPa WNW 8.3mph /  13.4km/h 16mph /  25.7km/h 89% 0.00in /  0mm 0 W/m2
20:19 46.9 °F /  8.3 °C 43.6 °F /  6.4 °C 29.71in /  1006hPa WNW 17.8mph /  28.6km/h 26mph /  41.8km/h 88.2% 0.01in /  0.25mm 0 W/m2
20:24 46.8 °F /  8.2 °C 43.1 °F /  6.2 °C 29.71in /  1006hPa West 15.9mph /  25.6km/h 28mph /  45.1km/h 87% 0.01in /  0.25mm 0 W/m2
20:29 46.8 °F /  8.2 °C 42.8 °F /  6 °C 29.71in /  1006hPa WSW 11.6mph /  18.7km/h 18mph /  29km/h 86% 0.01in /  0.25mm 0 W/m2
20:34 46.7 °F /  8.2 °C 42.7 °F /  5.9 °C 29.71in /  1006hPa West 9mph /  14.5km/h 15mph /  24.1km/h 86% 0.01in /  0.25mm 0 W/m2
20:39 46.4 °F /  8 °C 42.4 °F /  5.8 °C 29.71in /  1006hPa West 8.6mph /  13.8km/h 21mph /  33.8km/h 86% 0.01in /  0.25mm 0 W/m2
20:44 46.2 °F /  7.9 °C 42.3 °F /  5.7 °C 29.71in /  1006hPa West 7.1mph /  11.4km/h 15mph /  24.1km/h 86% 0.01in /  0.25mm 0 W/m2
20:49 46.2 °F /  7.9 °C 42.3 °F /  5.7 °C 29.71in /  1006hPa West 7mph /  11.3km/h 16mph /  25.7km/h 86% 0.01in /  0.25mm 0 W/m2
20:54 46.1 °F /  7.8 °C 42.2 °F /  5.7 °C 29.72in /  1006.3hPa West 6mph /  9.7km/h 16mph /  25.7km/h 86% 0.01in /  0.25mm 0 W/m2
20:59 46 °F /  7.8 °C 42.3 °F /  5.7 °C 29.72in /  1006.3hPa WNW 5.6mph /  9km/h 10mph /  16.1km/h 86.8% 0.01in /  0.25mm 0 W/m2
21:04 45.8 °F /  7.7 °C 42.2 °F /  5.7 °C 29.72in /  1006.3hPa West 5.8mph /  9.3km/h 13mph /  20.9km/h 87% 0.01in /  0.25mm 0 W/m2
21:09 45.7 °F /  7.6 °C 41.9 °F /  5.5 °C 29.72in /  1006.3hPa West 5.5mph /  8.9km/h 13mph /  20.9km/h 86.4% 0.01in /  0.25mm 0 W/m2
21:14 45.5 °F /  7.5 °C 41.5 °F /  5.3 °C 29.72in /  1006.3hPa West 3.7mph /  6km/h 10mph /  16.1km/h 86% 0.01in /  0.25mm 0 W/m2
21:18 45.3 °F /  7.4 °C 41.4 °F /  5.2 °C 29.73in /  1006.7hPa West 3.7mph /  6km/h 9mph /  14.5km/h 86% 0.00in /  0mm 0 W/m2
21:24 45.3 °F /  7.4 °C 41.4 °F /  5.2 °C 29.73in /  1006.7hPa West 5mph /  8km/h 7mph /  11.3km/h 86% 0.00in /  0mm 0 W/m2
21:29 45.3 °F /  7.4 °C 41.4 °F /  5.2 °C 29.73in /  1006.7hPa West 2.9mph /  4.7km/h 7mph /  11.3km/h 86% 0.00in /  0mm 0 W/m2
21:34 45.1 °F /  7.3 °C 41.2 °F /  5.1 °C 29.74in /  1007hPa West 2.4mph /  3.9km/h 7mph /  11.3km/h 86% 0.00in /  0mm 0 W/m2
21:39 45.1 °F /  7.3 °C 41.2 °F /  5.1 °C 29.74in /  1007hPa WSW 4mph /  6.4km/h 8mph /  12.9km/h 86% 0.00in /  0mm 0 W/m2
21:44 45.1 °F /  7.3 °C 41.2 °F /  5.1 °C 29.74in /  1007hPa West 2.8mph /  4.5km/h 9mph /  14.5km/h 86% 0.00in /  0mm 0 W/m2
21:49 45 °F /  7.2 °C 41 °F /  5 °C 29.74in /  1007hPa West 2.4mph /  3.9km/h 9mph /  14.5km/h 86% 0.00in /  0mm 0 W/m2
21:54 45 °F /  7.2 °C 41 °F /  5 °C 29.74in /  1007hPa West 1.2mph /  1.9km/h 9mph /  14.5km/h 86% 0.00in /  0mm 0 W/m2
21:59 44.9 °F /  7.2 °C 41 °F /  5 °C 29.74in /  1007hPa West 1.6mph /  2.6km/h 5mph /  8km/h 86.2% 0.00in /  0mm 0 W/m2
22:04 44.8 °F /  7.1 °C 40.8 °F /  4.9 °C 29.75in /  1007.3hPa West 1.5mph /  2.4km/h 3mph /  4.8km/h 86% 0.00in /  0mm 0 W/m2
22:09 44.8 °F /  7.1 °C 41.1 °F /  5.1 °C 29.75in /  1007.3hPa West 1.2mph /  1.9km/h 4mph /  6.4km/h 86.8% 0.00in /  0mm 0 W/m2
22:14 44.6 °F /  7 °C 41 °F /  5 °C 29.75in /  1007.3hPa West 1.3mph /  2.1km/h 3mph /  4.8km/h 87% 0.00in /  0mm 0 W/m2
22:19 44.4 °F /  6.9 °C 40.8 °F /  4.9 °C 29.75in /  1007.3hPa West 0.9mph /  1.4km/h 3mph /  4.8km/h 87% 0.00in /  0mm 0 W/m2
22:24 44.2 °F /  6.8 °C 40.6 °F /  4.8 °C 29.75in /  1007.3hPa West 0.7mph /  1.1km/h 3mph /  4.8km/h 87% 0.00in /  0mm 0 W/m2
22:29 44.1 °F /  6.7 °C 40.7 °F /  4.8 °C 29.76in /  1007.7hPa Calm   3mph /  4.8km/h 87.6% 0.00in /  0mm 0 W/m2
22:34 44.1 °F /  6.7 °C 40.8 °F /  4.9 °C 29.76in /  1007.7hPa West 0.8mph /  1.3km/h 4mph /  6.4km/h 88% 0.00in /  0mm 0 W/m2
22:39 44.1 °F /  6.7 °C 40.8 °F /  4.9 °C 29.76in /  1007.7hPa West 1.3mph /  2.1km/h 4mph /  6.4km/h 88% 0.00in /  0mm 0 W/m2
22:44 43.9 °F /  6.6 °C 40.6 °F /  4.8 °C 29.77in /  1008hPa West 0.4mph /  0.6km/h 2mph /  3.2km/h 88% 0.00in /  0mm 0 W/m2
22:49 43.8 °F /  6.6 °C 40.6 °F /  4.8 °C 29.77in /  1008hPa Calm   1mph /  1.6km/h 88.6% 0.00in /  0mm 0 W/m2
22:53 43.7 °F /  6.5 °C 40.6 °F /  4.8 °C 29.77in /  1008hPa Calm     89% 0.00in /  0mm 0 W/m2
22:59 43.5 °F /  6.4 °C 40.5 °F /  4.7 °C 29.77in /  1008hPa Calm     89% 0.00in /  0mm 0 W/m2
23:04 43.3 °F /  6.3 °C 40.2 °F /  4.6 °C 29.77in /  1008hPa Calm     89% 0.00in /  0mm 0 W/m2
23:09 43 °F /  6.1 °C 39.9 °F /  4.4 °C 29.77in /  1008hPa Calm     89% 0.00in /  0mm 0 W/m2
23:14 43 °F /  6.1 °C 39.9 °F /  4.4 °C 29.77in /  1008hPa Calm     89% 0.00in /  0mm 0 W/m2
23:19 43 °F /  6.1 °C 39.9 °F /  4.4 °C 29.78in /  1008.4hPa Calm     89% 0.00in /  0mm 0 W/m2
23:24 42.8 °F /  6 °C 40.1 °F /  4.5 °C 29.77in /  1008hPa Calm     89.8% 0.00in /  0mm 0 W/m2
23:29 42.7 °F /  5.9 °C 40 °F /  4.4 °C 29.77in /  1008hPa Calm     90% 0.00in /  0mm 0 W/m2
23:34 42.5 °F /  5.8 °C 39.8 °F /  4.3 °C 29.78in /  1008.4hPa West 0.2mph /  0.3km/h 1mph /  1.6km/h 90% 0.00in /  0mm 0 W/m2
23:39 42.4 °F /  5.8 °C 39.7 °F /  4.3 °C 29.78in /  1008.4hPa West 0.6mph /  1km/h 2mph /  3.2km/h 90% 0.00in /  0mm 0 W/m2
23:44 42.4 °F /  5.8 °C 39.7 °F /  4.3 °C 29.78in /  1008.4hPa West 1.2mph /  1.9km/h 3mph /  4.8km/h 90% 0.00in /  0mm 0 W/m2
23:48 42.6 °F /  5.9 °C 39.9 °F /  4.4 °C 29.78in /  1008.4hPa West 2.2mph /  3.5km/h 4mph /  6.4km/h 90% 0.00in /  0mm 0 W/m2
23:54 42.8 °F /  6 °C 40.1 °F /  4.5 °C 29.78in /  1008.4hPa West 1mph /  1.6km/h 4mph /  6.4km/h 90% 0.01in /  0.25mm 0 W/m2
23:59 43 °F /  6.1 °C 40.3 °F /  4.6 °C 29.78in /  1008.4hPa West 1.6mph /  2.6km/h 4mph /  6.4km/h 90.4% 0.01in /  0.25mm 0 W/m2
Bath Spa Weather
Compliments of Weather Underground - 2 mb